Time;durP1;ratioP1;P1;durP2;ratioP2;P2;SDS_P1;SDS_P2;PMS_P1;PMS_P2;Temp;Humidity;BMP_temperature;BMP_pressure;BME280_temperature;BME280_humidity;BME280_pressure;Samples;Min_cycle;Max_cycle;Signal;HPM_P1;HPM_P2
2022/05/30 00:00:29;;;;;;;2.20;0.65;;;8.10;99.90;;;;;;4990785;28;20493;-87
2022/05/30 00:02:55;;;;;;;4.43;1.08;;;8.10;99.90;;;;;;4990925;28;20393;-87
2022/05/30 00:05:23;;;;;;;4.00;0.95;;;8.30;99.90;;;;;;4990075;28;20050;-87
2022/05/30 00:07:49;;;;;;;4.60;1.20;;;8.80;99.90;;;;;;4991263;28;20064;-87
2022/05/30 00:10:16;;;;;;;4.20;1.45;;;7.90;99.90;;;;;;5000117;28;20114;-86
2022/05/30 00:12:42;;;;;;;4.15;1.60;;;7.80;99.90;;;;;;5007200;28;20038;-87
2022/05/30 00:15:11;;;;;;;3.03;1.50;;;7.80;99.90;;;;;;4998917;28;20070;-87
2022/05/30 00:17:37;;;;;;;6.43;1.73;;;7.70;99.90;;;;;;4993997;28;20427;-87
2022/05/30 00:20:04;;;;;;;5.13;1.88;;;8.40;99.90;;;;;;5007248;28;20128;-87
2022/05/30 00:22:30;;;;;;;4.97;1.90;;;7.60;99.90;;;;;;4995426;28;20050;-86
2022/05/30 00:24:56;;;;;;;4.93;1.92;;;7.60;99.90;;;;;;5016000;28;20052;-87
2022/05/30 00:27:21;;;;;;;4.20;1.60;;;7.80;99.90;;;;;;4989985;28;20046;-87
2022/05/30 00:29:47;;;;;;;5.63;1.80;;;7.70;99.90;;;;;;5006462;28;20077;-87
2022/05/30 00:32:13;;;;;;;6.53;1.95;;;7.80;99.90;;;;;;4990096;28;20101;-87
2022/05/30 00:34:44;;;;;;;3.83;1.80;;;7.90;99.90;;;;;;5006403;28;20034;-88
2022/05/30 00:37:09;;;;;;;5.68;1.77;;;7.50;99.90;;;;;;5006299;28;20134;-87
2022/05/30 00:39:35;;;;;;;4.70;1.80;;;7.40;99.90;;;;;;4990370;28;20085;-87
2022/05/30 00:42:13;;;;;;;6.75;2.10;;;7.90;99.90;;;;;;4989851;28;20034;-87
2022/05/30 00:44:42;;;;;;;7.32;2.33;;;7.40;99.90;;;;;;4989625;28;20094;-87
2022/05/30 00:47:07;;;;;;;5.32;1.90;;;7.90;99.90;;;;;;5006534;28;20424;-88
2022/05/30 00:49:36;;;;;;;9.20;2.47;;;7.40;99.90;;;;;;4989896;28;20107;-87
2022/05/30 00:52:05;;;;;;;6.18;2.47;;;7.90;99.90;;;;;;4989919;28;20053;-87
2022/05/30 00:54:42;;;;;;;4.20;1.95;;;7.40;99.90;;;;;;4989785;28;20046;-86
2022/05/30 00:57:20;;;;;;;5.95;2.65;;;7.60;99.90;;;;;;4976515;28;20501;-87
2022/05/30 01:00:00;;;;;;;8.27;2.60;;;8.00;99.90;;;;;;4976951;28;20129;-87
2022/05/30 01:02:30;;;;;;;6.63;2.35;;;8.00;99.90;;;;;;4976466;28;20038;-87
2022/05/30 01:07:46;;;;;;;7.90;2.90;;;7.90;99.90;;;;;;4992876;28;20103;-87
2022/05/30 01:10:20;;;;;;;8.95;2.63;;;8.40;99.90;;;;;;4976625;28;20133;-87
2022/05/30 01:12:52;;;;;;;6.72;2.65;;;7.90;99.90;;;;;;4992786;28;20046;-88
2022/05/30 01:15:20;;;;;;;7.45;2.70;;;7.90;99.90;;;;;;4981220;28;20022;-87
2022/05/30 01:18:00;;;;;;;6.05;2.55;;;8.40;99.90;;;;;;4993503;28;20086;-87
2022/05/30 01:21:00;;;;;;;6.60;2.60;;;7.50;99.90;;;;;;4992878;28;20133;-87
2022/05/30 01:23:45;;;;;;;7.68;2.58;;;8.10;99.90;;;;;;4992676;28;20061;-88
2022/05/30 01:26:23;;;;;;;6.55;2.45;;;7.50;99.90;;;;;;4976764;28;20046;-88
2022/05/30 01:28:58;;;;;;;7.90;2.58;;;7.50;99.90;;;;;;4976303;28;20082;-88
2022/05/30 01:31:24;;;;;;;6.00;2.50;;;7.50;99.90;;;;;;4976285;28;20077;-87
2022/05/30 01:33:51;;;;;;;7.32;2.33;;;8.10;99.90;;;;;;4976085;28;20052;-87
2022/05/30 01:36:29;;;;;;;5.15;2.30;;;8.20;99.90;;;;;;4976059;28;20046;-87
2022/05/30 01:38:55;;;;;;;7.18;2.50;;;7.80;99.90;;;;;;4976074;28;20042;-87
2022/05/30 01:41:21;;;;;;;6.95;2.30;;;7.40;99.90;;;;;;4976158;28;20047;-88
2022/05/30 01:43:47;;;;;;;6.65;2.45;;;7.40;99.90;;;;;;4975834;28;20050;-88
2022/05/30 01:46:17;;;;;;;6.13;2.42;;;7.90;99.90;;;;;;4975917;28;20084;-87
2022/05/30 01:48:45;;;;;;;8.85;2.67;;;7.70;99.90;;;;;;4992089;28;20490;-88
2022/05/30 01:51:13;;;;;;;6.82;2.40;;;7.80;99.90;;;;;;4975755;28;20046;-88
2022/05/30 01:53:39;;;;;;;4.95;2.25;;;7.00;99.90;;;;;;4992355;28;20043;-88
2022/05/30 01:56:05;;;;;;;4.78;2.13;;;8.00;99.90;;;;;;4975924;28;20515;-87
2022/05/30 01:58:32;;;;;;;8.68;2.83;;;7.60;99.90;;;;;;4975546;28;20088;-87
2022/05/30 02:01:02;;;;;;;5.25;2.40;;;7.40;99.90;;;;;;4975655;28;20086;-87
2022/05/30 02:03:28;;;;;;;5.53;2.50;;;7.60;99.90;;;;;;4975595;28;20046;-87
2022/05/30 02:05:55;;;;;;;5.50;2.20;;;7.50;99.90;;;;;;4976183;28;20076;-88
2022/05/30 02:08:21;;;;;;;6.05;2.20;;;7.50;99.90;;;;;;4974673;28;20042;-87
2022/05/30 02:10:48;;;;;;;8.35;2.72;;;6.80;99.90;;;;;;4975534;28;20047;-88
2022/05/30 02:13:14;;;;;;;5.57;2.40;;;7.30;99.90;;;;;;4975612;28;20035;-87
2022/05/30 02:18:24;;;;;;;3.88;2.20;;;7.30;99.90;;;;;;4992135;28;20397;-87
2022/05/30 02:20:50;;;;;;;5.15;2.13;;;7.70;99.90;;;;;;4975380;28;20038;-88
2022/05/30 02:23:17;;;;;;;4.45;2.35;;;7.10;99.90;;;;;;4991825;28;20043;-88
2022/05/30 02:25:43;;;;;;;5.05;2.28;;;6.60;99.90;;;;;;4975389;28;20043;-88
2022/05/30 02:28:09;;;;;;;5.25;2.10;;;6.60;99.90;;;;;;4975397;28;20054;-87
2022/05/30 02:30:35;;;;;;;4.50;2.10;;;7.20;99.90;;;;;;4975380;28;20050;-88
2022/05/30 02:38:29;;;;;;;4.35;2.28;;;7.20;99.90;;;;;;4991603;28;20463;-87
2022/05/30 02:40:54;;;;;;;5.38;2.40;;;7.00;99.90;;;;;;4991021;28;20135;-88
2022/05/30 02:43:20;;;;;;;5.38;2.63;;;6.90;99.90;;;;;;4974782;28;20050;-87
2022/05/30 02:45:46;;;;;;;5.07;2.40;;;7.40;99.90;;;;;;4975563;28;20046;-87
2022/05/30 02:48:12;;;;;;;5.28;2.50;;;6.80;99.90;;;;;;4975067;28;20049;-89
2022/05/30 02:50:38;;;;;;;6.80;2.50;;;6.80;99.90;;;;;;4974649;28;20046;-88
2022/05/30 02:53:04;;;;;;;5.57;2.70;;;7.40;99.90;;;;;;4974893;28;20042;-88
2022/05/30 02:55:30;;;;;;;7.38;2.70;;;6.70;99.90;;;;;;4974523;28;20129;-88
2022/05/30 02:57:55;;;;;;;4.28;2.63;;;7.00;99.90;;;;;;4975118;28;20069;-87
2022/05/30 03:00:21;;;;;;;4.93;2.53;;;6.90;99.90;;;;;;4990955;28;20111;-87
2022/05/30 03:02:47;;;;;;;8.23;2.85;;;6.40;99.90;;;;;;4991139;28;20137;-87
2022/05/30 03:05:13;;;;;;;5.50;2.75;;;6.30;99.90;;;;;;4990752;28;20133;-87
2022/05/30 03:07:38;;;;;;;8.50;2.97;;;5.80;99.90;;;;;;4974476;28;20107;-87
2022/05/30 03:10:04;;;;;;;6.72;2.78;;;6.80;99.90;;;;;;4974613;28;20042;-87
2022/05/30 03:12:30;;;;;;;6.90;2.90;;;6.20;99.90;;;;;;4975546;28;20077;-87
2022/05/30 03:14:56;;;;;;;7.95;3.05;;;6.90;99.90;;;;;;4991705;28;20049;-87
2022/05/30 03:17:21;;;;;;;9.57;3.50;;;7.40;99.90;;;;;;4975073;28;20042;-88
2022/05/30 03:19:56;;;;;;;8.20;3.20;;;7.10;99.90;;;;;;4974410;28;20049;-87
2022/05/30 03:22:22;;;;;;;6.20;3.42;;;7.00;99.90;;;;;;4974665;28;20045;-87
2022/05/30 03:24:47;;;;;;;6.35;3.17;;;6.70;99.90;;;;;;4974413;28;20110;-87
2022/05/30 03:27:13;;;;;;;11.65;3.70;;;7.10;99.90;;;;;;4974457;28;20045;-87
2022/05/30 03:29:39;;;;;;;8.18;3.60;;;7.10;99.90;;;;;;4974400;28;20050;-88
2022/05/30 03:32:05;;;;;;;6.57;3.28;;;6.90;99.90;;;;;;4975014;28;20046;-87
2022/05/30 03:34:31;;;;;;;7.53;3.53;;;6.50;99.90;;;;;;4974882;28;20084;-87
2022/05/30 03:36:56;;;;;;;7.03;3.25;;;7.40;99.90;;;;;;4974324;28;20070;-87
2022/05/30 03:39:22;;;;;;;8.80;4.07;;;6.80;99.90;;;;;;4990454;28;20054;-87
2022/05/30 03:41:48;;;;;;;7.40;3.70;;;7.00;99.90;;;;;;4974059;28;20042;-87
2022/05/30 03:44:13;;;;;;;7.65;3.75;;;7.20;99.90;;;;;;4990134;28;20059;-87
2022/05/30 03:46:39;;;;;;;8.52;3.30;;;7.70;99.90;;;;;;4973969;28;20083;-88
2022/05/30 03:49:05;;;;;;;8.50;3.72;;;6.60;99.90;;;;;;4974217;28;20043;-87
2022/05/30 03:51:32;;;;;;;8.15;4.10;;;7.00;99.90;;;;;;4974029;28;20042;-88
2022/05/30 03:53:57;;;;;;;8.95;4.00;;;6.60;99.90;;;;;;4975227;28;20365;-87
2022/05/30 03:56:23;;;;;;;8.82;4.18;;;6.60;99.90;;;;;;4974128;28;20042;-87
2022/05/30 03:58:49;;;;;;;13.02;4.20;;;7.20;99.90;;;;;;4973931;28;20074;-88
2022/05/30 04:01:14;;;;;;;9.73;4.13;;;7.50;99.90;;;;;;4974353;28;20130;-87
2022/05/30 04:03:40;;;;;;;9.45;4.28;;;7.80;99.90;;;;;;4990067;28;20554;-88
2022/05/30 04:06:07;;;;;;;10.68;4.70;;;7.60;99.90;;;;;;4989950;28;20129;-87
2022/05/30 04:08:33;;;;;;;8.70;4.30;;;7.10;99.90;;;;;;4973816;28;20056;-87
2022/05/30 04:11:00;;;;;;;10.38;4.50;;;7.50;99.90;;;;;;4973872;28;20133;-87
2022/05/30 04:13:25;;;;;;;9.07;4.22;;;7.10;99.90;;;;;;4974388;28;20046;-87
2022/05/30 04:15:51;;;;;;;9.80;4.25;;;7.50;99.90;;;;;;4973711;28;20046;-87
2022/05/30 04:18:17;;;;;;;10.20;4.82;;;8.20;99.90;;;;;;4973883;28;20053;-87
2022/05/30 04:20:52;;;;;;;11.65;3.67;;;8.00;99.90;;;;;;4973567;28;20087;-87
2022/05/30 04:23:17;;;;;;;8.77;3.75;;;7.30;99.90;;;;;;4974002;28;20435;-87
2022/05/30 04:25:43;;;;;;;6.70;3.00;;;7.10;99.90;;;;;;4974145;28;20042;-87
2022/05/30 04:28:09;;;;;;;6.20;3.03;;;7.50;99.90;;;;;;4973845;28;20082;-87
2022/05/30 04:30:36;;;;;;;7.70;2.95;;;7.30;99.90;;;;;;4990788;28;20086;-87
2022/05/30 04:33:01;;;;;;;5.60;3.00;;;7.50;99.90;;;;;;4993201;28;20053;-87
2022/05/30 04:35:27;;;;;;;6.32;3.35;;;7.30;99.90;;;;;;4977197;28;20050;-87
2022/05/30 04:37:53;;;;;;;9.68;3.67;;;7.50;99.90;;;;;;4976951;28;20093;-88
2022/05/30 04:40:19;;;;;;;8.82;3.63;;;7.60;99.90;;;;;;4976636;28;20078;-87
2022/05/30 04:42:48;;;;;;;9.43;3.75;;;7.40;99.90;;;;;;5009884;28;20424;-87
2022/05/30 04:45:15;;;;;;;8.32;3.50;;;8.00;99.90;;;;;;4992864;28;20397;-87
2022/05/30 04:47:41;;;;;;;8.10;3.58;;;8.00;99.90;;;;;;4977003;28;20077;-87
2022/05/30 04:50:16;;;;;;;6.00;3.20;;;7.80;99.90;;;;;;4976633;28;20084;-87
2022/05/30 04:52:43;;;;;;;8.18;4.00;;;7.60;99.90;;;;;;4976661;28;20042;-87
2022/05/30 04:55:11;;;;;;;11.77;4.20;;;8.50;99.90;;;;;;4992889;28;20057;-87
2022/05/30 04:57:45;;;;;;;7.80;3.20;;;8.40;99.90;;;;;;4977388;28;20038;-87
2022/05/30 05:00:14;;;;;;;7.72;3.25;;;7.80;99.90;;;;;;4977303;28;20046;-87
2022/05/30 05:02:40;;;;;;;7.50;3.47;;;7.80;99.90;;;;;;4976259;28;20054;-87
2022/05/30 05:05:15;;;;;;;8.90;3.60;;;8.30;99.90;;;;;;4976569;28;20050;-87
2022/05/30 05:07:47;;;;;;;7.95;4.00;;;7.90;99.90;;;;;;4976219;28;20059;-87
2022/05/30 05:10:33;;;;;;;6.43;3.17;;;8.00;99.90;;;;;;4976420;28;20138;-87
2022/05/30 05:12:59;;;;;;;6.68;3.17;;;8.60;99.90;;;;;;4992617;28;20184;-87
2022/05/30 05:15:24;;;;;;;8.88;3.08;;;8.10;99.90;;;;;;4976643;28;20072;-87
2022/05/30 05:17:50;;;;;;;7.22;3.25;;;8.50;99.90;;;;;;4976324;28;20046;-87
2022/05/30 05:20:23;;;;;;;4.47;2.85;;;8.20;99.90;;;;;;4992806;28;20050;-87
2022/05/30 05:22:50;;;;;;;9.20;3.67;;;9.20;99.90;;;;;;4976170;28;20061;-87
2022/05/30 05:25:16;;;;;;;7.13;3.13;;;9.20;99.90;;;;;;4976090;28;20129;-87
2022/05/30 05:27:41;;;;;;;8.32;3.30;;;8.40;99.90;;;;;;4976372;28;20171;-87
2022/05/30 05:30:08;;;;;;;5.90;3.20;;;8.80;99.90;;;;;;4976902;28;20077;-87
2022/05/30 05:32:34;;;;;;;7.25;2.72;;;8.60;99.90;;;;;;4976485;28;20492;-87
2022/05/30 05:35:12;;;;;;;7.38;2.95;;;9.40;99.90;;;;;;4976129;28;20137;-87
2022/05/30 05:37:38;;;;;;;7.45;2.80;;;9.50;99.90;;;;;;4992224;28;20042;-87
2022/05/30 05:40:04;;;;;;;7.20;3.17;;;9.30;99.90;;;;;;4976081;28;20053;-87
2022/05/30 05:42:30;;;;;;;6.10;2.30;;;8.80;99.90;;;;;;4975448;28;20081;-87
2022/05/30 05:44:56;;;;;;;6.70;2.60;;;9.60;99.90;;;;;;4976128;28;20504;-87
2022/05/30 05:47:21;;;;;;;5.35;2.75;;;9.20;99.90;;;;;;4976167;28;20048;-87
2022/05/30 05:49:56;;;;;;;7.00;2.50;;;9.30;99.90;;;;;;4975722;28;20477;-87
2022/05/30 05:52:25;;;;;;;10.52;2.95;;;9.60;99.90;;;;;;4976117;28;20512;-87
2022/05/30 05:54:54;;;;;;;5.65;2.20;;;9.20;99.90;;;;;;4976048;28;20058;-87
2022/05/30 05:57:21;;;;;;;7.60;2.55;;;9.20;99.90;;;;;;4975784;28;20086;-87
2022/05/30 05:59:46;;;;;;;6.75;2.50;;;9.30;99.90;;;;;;4976051;28;20112;-86
2022/05/30 06:02:12;;;;;;;3.78;1.83;;;9.70;99.90;;;;;;4992013;28;20485;-87
2022/05/30 06:04:39;;;;;;;4.88;2.10;;;10.20;99.90;;;;;;4975585;28;20485;-87
2022/05/30 06:07:05;;;;;;;3.47;1.63;;;9.70;99.90;;;;;;4981983;28;20105;-86
2022/05/30 06:09:30;;;;;;;4.32;1.60;;;10.00;99.90;;;;;;4994872;28;20049;-86
2022/05/30 06:12:00;;;;;;;5.03;1.73;;;10.20;99.90;;;;;;5007626;28;20045;-86
2022/05/30 06:14:26;;;;;;;3.88;1.70;;;10.50;99.90;;;;;;4975698;28;20489;-87
2022/05/30 06:16:52;;;;;;;5.50;1.70;;;10.00;99.90;;;;;;4975736;28;20042;-87
2022/05/30 06:19:19;;;;;;;5.72;1.73;;;10.10;99.90;;;;;;4975370;28;20042;-87
2022/05/30 06:21:50;;;;;;;9.98;1.85;;;10.50;99.90;;;;;;4975316;28;20038;-87
2022/05/30 06:24:17;;;;;;;2.95;1.30;;;11.00;99.90;;;;;;4975715;28;20107;-86
2022/05/30 06:26:45;;;;;;;5.47;1.50;;;10.30;99.90;;;;;;4975411;28;20046;-86
2022/05/30 06:29:14;;;;;;;2.92;1.55;;;10.90;99.90;;;;;;4975176;28;20047;-87
2022/05/30 06:31:40;;;;;;;4.53;1.20;;;10.50;99.90;;;;;;4991231;28;20464;-87
2022/05/30 06:34:07;;;;;;;3.70;1.30;;;10.60;99.90;;;;;;4975550;28;20440;-86
2022/05/30 06:36:45;;;;;;;4.10;1.30;;;10.80;99.90;;;;;;4975154;28;20045;-86
2022/05/30 06:39:11;;;;;;;2.30;1.10;;;11.60;99.90;;;;;;4975318;28;20068;-86
2022/05/30 06:41:37;;;;;;;2.42;1.05;;;11.50;99.90;;;;;;4991378;28;20038;-87
2022/05/30 06:44:06;;;;;;;3.72;1.20;;;11.60;99.90;;;;;;4974798;28;20064;-86
2022/05/30 06:46:34;;;;;;;2.47;0.85;;;10.90;99.90;;;;;;4991178;28;20050;-86
2022/05/30 06:49:01;;;;;;;2.28;0.90;;;11.50;99.90;;;;;;4991209;28;20046;-86
2022/05/30 06:51:31;;;;;;;2.72;0.80;;;11.50;99.90;;;;;;4991153;28;20447;-85
2022/05/30 06:53:57;;;;;;;2.55;0.90;;;11.10;99.90;;;;;;4990508;28;20043;-85
2022/05/30 06:56:26;;;;;;;2.45;0.90;;;11.90;99.90;;;;;;4990924;28;20049;-87
2022/05/30 06:58:52;;;;;;;2.20;0.80;;;11.40;99.90;;;;;;5001045;28;20054;-86
2022/05/30 07:01:20;;;;;;;2.33;0.90;;;11.80;99.90;;;;;;4999384;28;20047;-86
2022/05/30 07:03:46;;;;;;;3.20;0.95;;;11.40;99.90;;;;;;4991068;28;20402;-86
2022/05/30 07:06:19;;;;;;;3.58;0.90;;;11.20;99.90;;;;;;4974924;28;20537;-87
2022/05/30 07:08:46;;;;;;;1.52;0.80;;;11.80;99.90;;;;;;4974782;28;20138;-86
2022/05/30 07:11:16;;;;;;;1.50;0.70;;;11.50;99.90;;;;;;4974744;28;20050;-86
2022/05/30 07:13:43;;;;;;;2.40;0.70;;;12.30;99.90;;;;;;4974808;28;20415;-87
2022/05/30 07:16:09;;;;;;;1.98;0.70;;;12.40;99.90;;;;;;4990894;28;20096;-86
2022/05/30 07:18:36;;;;;;;2.17;0.65;;;12.40;99.90;;;;;;4974462;28;20042;-86
2022/05/30 07:21:05;;;;;;;3.83;1.15;;;12.10;99.90;;;;;;4990545;28;20046;-86
2022/05/30 07:23:32;;;;;;;3.05;0.80;;;12.30;99.90;;;;;;4974413;28;20087;-86
2022/05/30 07:26:00;;;;;;;3.63;0.80;;;12.10;99.90;;;;;;4974651;28;20051;-86
2022/05/30 07:28:30;;;;;;;2.40;0.80;;;12.60;99.90;;;;;;4990601;28;20171;-86
2022/05/30 07:31:07;;;;;;;4.00;0.90;;;13.20;99.90;;;;;;4974429;28;20089;-86
2022/05/30 07:33:34;;;;;;;3.75;1.00;;;12.90;99.90;;;;;;4974669;28;20051;-86
2022/05/30 07:36:11;;;;;;;3.95;1.10;;;12.80;99.90;;;;;;4974207;28;20062;-87
2022/05/30 07:38:37;;;;;;;2.92;0.80;;;12.80;99.90;;;;;;5023215;28;20042;-87
2022/05/30 07:41:03;;;;;;;2.70;1.17;;;13.00;99.90;;;;;;4990289;28;20050;-87
2022/05/30 07:43:29;;;;;;;2.58;0.85;;;12.60;99.90;;;;;;4990098;28;20409;-86
2022/05/30 07:46:07;;;;;;;3.20;0.85;;;12.60;99.90;;;;;;4990382;28;20050;-87
2022/05/30 07:48:33;;;;;;;3.08;0.73;;;12.50;99.90;;;;;;4974281;28;20084;-86
2022/05/30 07:51:01;;;;;;;3.30;1.00;;;12.50;99.90;;;;;;4974409;28;20050;-87
2022/05/30 07:53:27;;;;;;;1.98;0.73;;;12.40;99.90;;;;;;4990566;28;20397;-87
2022/05/30 07:55:52;;;;;;;2.80;0.95;;;12.90;99.90;;;;;;4990108;28;20046;-87
2022/05/30 07:58:18;;;;;;;3.40;0.80;;;12.80;99.90;;;;;;4990421;28;20042;-87
2022/05/30 08:00:44;;;;;;;2.17;0.88;;;12.60;99.90;;;;;;4990464;28;20453;-87
2022/05/30 08:03:11;;;;;;;2.35;0.82;;;12.60;99.90;;;;;;4974321;28;20043;-87
2022/05/30 08:05:43;;;;;;;2.13;0.70;;;12.80;99.90;;;;;;4991143;28;20054;-87
2022/05/30 08:08:09;;;;;;;3.03;0.90;;;12.40;99.90;;;;;;4977715;28;20064;-87
2022/05/30 08:10:34;;;;;;;1.90;0.90;;;12.60;99.90;;;;;;4994632;28;20050;-87
2022/05/30 08:13:00;;;;;;;3.25;1.20;;;12.40;99.90;;;;;;4977380;28;20374;-87
2022/05/30 08:15:26;;;;;;;4.28;1.00;;;11.90;99.90;;;;;;4977410;28;20049;-87
2022/05/30 08:17:57;;;;;;;3.83;1.13;;;11.70;99.90;;;;;;4993890;28;20054;-86
2022/05/30 08:20:24;;;;;;;3.17;1.10;;;11.50;99.90;;;;;;4977983;28;20130;-87
2022/05/30 08:22:50;;;;;;;5.20;0.98;;;11.40;99.90;;;;;;4980819;28;20117;-87
2022/05/30 08:25:18;;;;;;;3.72;1.10;;;11.30;99.90;;;;;;4998062;28;20042;-86
2022/05/30 08:27:45;;;;;;;3.63;1.33;;;11.50;99.90;;;;;;4979108;28;20038;-86
2022/05/30 08:30:12;;;;;;;3.55;1.10;;;11.80;99.90;;;;;;4979014;28;20432;-87
2022/05/30 08:32:42;;;;;;;2.92;1.08;;;11.30;99.90;;;;;;4984352;28;20038;-86
2022/05/30 08:35:12;;;;;;;2.60;0.90;;;11.40;99.90;;;;;;4982130;28;20074;-87
2022/05/30 08:37:38;;;;;;;2.05;0.80;;;11.40;99.90;;;;;;4984681;28;20095;-87
2022/05/30 08:42:54;;;;;;;2.35;0.80;;;11.70;99.90;;;;;;4994565;28;20046;-86
2022/05/30 08:45:22;;;;;;;2.22;1.00;;;12.00;99.90;;;;;;4978249;28;20393;-86
2022/05/30 08:47:55;;;;;;;3.60;0.85;;;11.90;99.90;;;;;;4977368;28;20056;-88
2022/05/30 08:51:06;;;;;;;4.40;0.90;;;12.10;99.90;;;;;;4976785;28;20042;-87
2022/05/30 08:54:08;;;;;;;2.75;0.85;;;12.20;99.90;;;;;;4977706;28;20120;-85
2022/05/30 08:56:39;;;;;;;2.45;0.80;;;12.30;99.90;;;;;;4976946;28;20367;-87
2022/05/30 08:59:32;;;;;;;4.25;0.98;;;12.40;99.90;;;;;;4976564;28;20042;-87
2022/05/30 09:02:26;;;;;;;3.13;0.93;;;12.40;99.90;;;;;;4993106;28;20501;-87
2022/05/30 09:04:59;;;;;;;4.25;0.90;;;12.40;99.90;;;;;;4977412;28;20560;-87
2022/05/30 09:07:29;;;;;;;2.90;0.80;;;12.80;99.90;;;;;;4976425;28;20043;-87
2022/05/30 09:10:07;;;;;;;3.88;0.80;;;12.80;99.90;;;;;;4986990;28;20042;-87
2022/05/30 09:12:42;;;;;;;3.28;0.80;;;13.30;99.90;;;;;;4987500;28;20079;-87
2022/05/30 09:15:13;;;;;;;6.32;1.00;;;13.60;99.90;;;;;;4998827;28;20054;-88
2022/05/30 09:17:56;;;;;;;2.15;0.90;;;13.70;99.90;;;;;;4976099;28;20046;-87
2022/05/30 09:20:23;;;;;;;2.95;0.90;;;13.60;99.90;;;;;;4971920;28;20129;-87
2022/05/30 09:22:50;;;;;;;3.25;0.93;;;13.50;99.90;;;;;;4992547;28;20050;-87
2022/05/30 09:28:12;;;;;;;3.22;0.80;;;13.40;99.90;;;;;;4992710;28;20043;-87
2022/05/30 09:31:02;;;;;;;3.20;0.70;;;13.80;99.90;;;;;;4992394;28;20540;-87
2022/05/30 09:33:34;;;;;;;3.58;1.00;;;13.70;99.90;;;;;;4976103;28;20050;-87
2022/05/30 09:36:14;;;;;;;2.58;0.95;;;13.70;99.90;;;;;;4992038;28;20047;-88
2022/05/30 09:38:42;;;;;;;2.83;0.77;;;13.60;99.90;;;;;;4992169;28;20053;-87
2022/05/30 09:41:15;;;;;;;2.58;0.70;;;13.90;99.90;;;;;;4976012;28;20493;-87
2022/05/30 09:43:45;;;;;;;3.63;0.70;;;14.10;99.90;;;;;;4992297;28;20055;-88
2022/05/30 09:46:26;;;;;;;2.50;0.73;;;14.00;99.90;;;;;;4992214;28;20132;-87
2022/05/30 09:49:05;;;;;;;4.25;1.00;;;14.00;99.90;;;;;;4976265;28;20086;-87
2022/05/30 09:52:03;;;;;;;3.15;1.00;;;14.40;99.90;;;;;;4976098;28;20105;-88
2022/05/30 09:54:28;;;;;;;2.88;0.90;;;13.80;99.90;;;;;;4989846;28;20054;-87
2022/05/30 09:56:59;;;;;;;4.75;1.00;;;13.50;99.90;;;;;;4992259;28;20599;-88
2022/05/30 09:59:25;;;;;;;5.57;0.98;;;13.20;99.90;;;;;;4992413;28;20478;-88
2022/05/30 10:01:53;;;;;;;4.40;1.20;;;13.00;99.90;;;;;;4993265;28;20067;-88
2022/05/30 10:04:38;;;;;;;3.15;0.90;;;12.70;99.90;;;;;;4976147;28;20082;-87
2022/05/30 10:07:19;;;;;;;5.00;1.10;;;12.50;99.90;;;;;;4976020;28;20042;-87
2022/05/30 10:10:20;;;;;;;3.58;1.05;;;12.20;99.90;;;;;;4975932;28;20374;-88
2022/05/30 10:12:53;;;;;;;3.28;1.20;;;12.00;99.90;;;;;;5036651;28;20061;-88
2022/05/30 10:15:25;;;;;;;2.83;1.20;;;11.90;99.90;;;;;;5037107;28;20490;-88
2022/05/30 10:17:52;;;;;;;4.03;1.77;;;11.80;99.90;;;;;;5020535;28;20135;-88
2022/05/30 10:20:41;;;;;;;3.03;1.20;;;12.40;99.90;;;;;;5027676;28;20036;-88
2022/05/30 10:29:12;;;;;;;3.63;1.00;;;12.20;99.90;;;;;;4957149;28;20047;-88
2022/05/30 10:31:50;;;;;;;3.10;1.27;;;11.80;99.90;;;;;;4958296;28;20536;-88
2022/05/30 10:34:54;;;;;;;4.72;1.00;;;11.90;99.90;;;;;;4957908;28;20094;-87
2022/05/30 10:37:50;;;;;;;3.22;0.98;;;11.90;99.90;;;;;;4919720;29;20091;-88
2022/05/30 10:40:22;;;;;;;3.78;0.80;;;12.10;99.90;;;;;;4919835;29;20095;-88
2022/05/30 10:42:58;;;;;;;3.00;1.00;;;12.40;99.90;;;;;;4935752;29;20043;-87
2022/05/30 10:45:31;;;;;;;2.85;1.00;;;12.80;99.90;;;;;;4935225;29;20488;-87
2022/05/30 10:47:58;;;;;;;2.85;1.00;;;12.70;99.90;;;;;;4919813;29;20119;-88
2022/05/30 10:50:46;;;;;;;4.45;1.20;;;12.90;99.90;;;;;;4935274;29;20094;-88
2022/05/30 10:53:25;;;;;;;3.38;1.00;;;12.90;99.90;;;;;;4922966;29;20090;-88
2022/05/30 10:55:53;;;;;;;3.13;0.90;;;13.10;99.90;;;;;;4954735;28;20154;-88
2022/05/30 10:58:33;;;;;;;2.95;0.90;;;13.10;99.90;;;;;;4954408;29;20053;-88
2022/05/30 11:01:15;;;;;;;4.07;1.10;;;12.60;99.90;;;;;;4938582;29;20150;-88
2022/05/30 11:03:47;;;;;;;4.45;1.15;;;12.50;99.90;;;;;;4985751;28;20054;-88
2022/05/30 11:06:35;;;;;;;3.22;1.10;;;12.40;99.90;;;;;;5012999;28;20136;-89
2022/05/30 11:09:36;;;;;;;3.42;0.90;;;12.70;99.90;;;;;;5013036;28;20133;-88
2022/05/30 11:12:13;;;;;;;2.10;0.75;;;12.20;99.90;;;;;;4967340;28;20140;-87
2022/05/30 11:14:43;;;;;;;2.45;0.75;;;12.20;99.90;;;;;;4991139;28;20059;-88
2022/05/30 11:17:22;;;;;;;2.30;0.95;;;12.60;99.90;;;;;;4991260;28;20046;-88
2022/05/30 11:20:06;;;;;;;2.67;0.90;;;12.10;99.90;;;;;;4974900;28;20545;-87
2022/05/30 11:22:40;;;;;;;3.50;0.90;;;12.10;99.90;;;;;;4991360;28;20042;-88
2022/05/30 11:25:12;;;;;;;3.35;0.90;;;12.10;99.90;;;;;;4975017;28;20125;-87
2022/05/30 11:27:39;;;;;;;2.72;1.00;;;12.00;99.90;;;;;;4994588;28;20047;-88
2022/05/30 11:30:17;;;;;;;4.10;1.10;;;12.10;99.90;;;;;;4979468;28;20054;-88
2022/05/30 11:32:58;;;;;;;3.67;1.17;;;12.00;99.90;;;;;;4975288;28;20481;-88
2022/05/30 11:35:23;;;;;;;4.35;2.30;;;12.10;99.90;;;;;;4975401;28;20078;-88
2022/05/30 11:38:06;;;;;;;4.72;1.23;;;12.20;99.90;;;;;;4975095;28;20057;-88
2022/05/30 11:41:00;;;;;;;4.18;1.30;;;12.20;99.90;;;;;;4974457;28;20046;-88
2022/05/30 11:43:36;;;;;;;3.10;1.08;;;12.20;99.90;;;;;;4986149;28;20054;-88
2022/05/30 11:46:18;;;;;;;3.65;1.15;;;12.30;99.90;;;;;;4990756;28;20057;-88
2022/05/30 11:48:53;;;;;;;3.13;0.90;;;12.30;99.90;;;;;;4970232;28;20050;-88
2022/05/30 11:51:43;;;;;;;3.17;1.10;;;12.20;99.90;;;;;;4974306;28;20054;-88
2022/05/30 11:54:30;;;;;;;3.63;0.95;;;12.20;99.90;;;;;;4990589;28;20133;-88
2022/05/30 11:57:09;;;;;;;2.75;1.13;;;12.30;99.90;;;;;;4974436;28;20038;-88
2022/05/30 12:00:07;;;;;;;3.40;1.10;;;12.40;99.90;;;;;;4974462;28;20439;-87
2022/05/30 12:02:53;;;;;;;2.55;0.90;;;12.30;99.90;;;;;;5018436;28;20061;-88
2022/05/30 12:05:25;;;;;;;4.28;1.00;;;12.20;99.90;;;;;;5018535;28;20048;-88
2022/05/30 12:07:59;;;;;;;4.13;0.80;;;12.20;99.90;;;;;;5018369;28;20045;-88
2022/05/30 12:10:31;;;;;;;4.40;1.05;;;12.10;99.90;;;;;;5018412;28;20161;-89
2022/05/30 12:13:14;;;;;;;2.58;1.00;;;12.10;99.90;;;;;;5018420;28;20136;-88
2022/05/30 12:15:46;;;;;;;2.53;1.00;;;12.10;99.90;;;;;;5018632;28;20396;-88
2022/05/30 12:24:18;;;;;;;3.83;1.30;;;11.80;99.90;;;;;;5034427;28;20480;-87
2022/05/30 12:26:53;;;;;;;5.60;1.90;;;11.70;99.90;;;;;;5018114;28;20049;-87
2022/05/30 12:29:39;;;;;;;3.73;1.60;;;12.30;99.90;;;;;;5018135;28;20052;-86
2022/05/30 12:32:24;;;;;;;5.20;1.45;;;11.60;99.90;;;;;;5018006;28;20584;-86
2022/05/30 12:35:11;;;;;;;3.58;1.33;;;11.70;99.90;;;;;;5017883;28;20064;-87
2022/05/30 12:37:59;;;;;;;3.67;1.48;;;11.90;99.90;;;;;;5017894;28;20052;-87
2022/05/30 12:40:25;;;;;;;3.78;1.10;;;11.90;99.90;;;;;;4973847;28;20047;-87
2022/05/30 12:43:04;;;;;;;3.38;1.35;;;12.60;99.90;;;;;;4973855;28;20116;-87
2022/05/30 12:45:46;;;;;;;3.60;1.50;;;12.20;99.90;;;;;;4973445;28;20119;-87
2022/05/30 12:48:31;;;;;;;5.70;1.67;;;12.60;99.90;;;;;;4973460;28;20053;-87
2022/05/30 12:50:58;;;;;;;5.05;1.88;;;12.60;99.90;;;;;;4989713;28;20081;-87
2022/05/30 12:53:44;;;;;;;4.38;1.50;;;12.80;99.90;;;;;;4993130;28;20393;-87
2022/05/30 12:56:10;;;;;;;5.00;1.63;;;13.00;99.90;;;;;;4992824;28;20144;-87
2022/05/30 12:58:36;;;;;;;3.28;1.33;;;13.20;99.90;;;;;;4976944;28;20056;-88
2022/05/30 13:01:22;;;;;;;5.57;1.50;;;13.40;99.90;;;;;;4993133;28;20520;-87
2022/05/30 13:04:25;;;;;;;4.32;1.45;;;13.40;99.90;;;;;;4976501;28;20147;-88
2022/05/30 13:06:57;;;;;;;4.78;1.30;;;13.30;99.90;;;;;;5037586;28;20056;-87
2022/05/30 13:09:26;;;;;;;5.05;1.30;;;13.70;99.90;;;;;;5037689;28;20093;-87
2022/05/30 13:12:17;;;;;;;5.82;1.30;;;13.50;99.90;;;;;;5021506;28;20056;-87
2022/05/30 13:15:00;;;;;;;3.58;1.30;;;13.80;99.90;;;;;;5029204;28;20049;-88
2022/05/30 13:17:53;;;;;;;5.55;1.40;;;13.90;99.90;;;;;;5029741;28;20079;-87
2022/05/30 13:20:27;;;;;;;4.13;1.30;;;14.00;99.90;;;;;;5028339;28;20045;-87
2022/05/30 13:22:55;;;;;;;3.63;1.30;;;14.20;99.90;;;;;;5028563;28;20179;-88
2022/05/30 13:25:29;;;;;;;5.47;1.40;;;14.20;99.90;;;;;;5029884;28;20415;-88
2022/05/30 13:28:10;;;;;;;3.45;1.33;;;14.30;99.90;;;;;;5047261;28;20124;-88
2022/05/30 13:30:37;;;;;;;3.17;1.40;;;14.40;99.90;;;;;;5029575;28;20088;-88
2022/05/30 13:33:25;;;;;;;3.60;1.40;;;15.10;99.90;;;;;;5030395;28;20047;-88
2022/05/30 13:35:58;;;;;;;4.10;1.10;;;14.90;99.90;;;;;;5045255;28;20045;-87
2022/05/30 13:38:40;;;;;;;5.18;1.33;;;14.50;99.90;;;;;;5080234;28;20106;-87
2022/05/30 13:41:22;;;;;;;3.35;1.30;;;14.50;99.90;;;;;;5075230;28;20102;-87